createdAt,value
2022-07-29T00:00:00.008Z,100996.06
2022-07-29T00:05:02.385Z,100991.63
2022-07-29T00:10:04.962Z,100979.06
2022-07-29T00:15:07.174Z,100973.66
2022-07-29T00:20:09.403Z,100972.44
2022-07-29T00:25:13.681Z,100965.19
2022-07-29T00:30:15.580Z,100955.69
2022-07-29T00:35:35.797Z,100948.56
2022-07-29T00:40:37.309Z,100933.41
2022-07-29T00:45:45.636Z,100944.75
2022-07-29T00:50:47.327Z,100937.00
2022-07-29T00:55:48.823Z,100934.91
2022-07-29T01:00:50.824Z,100928.72
2022-07-29T01:05:54.227Z,100924.66
2022-07-29T01:10:56.292Z,100924.28
2022-07-29T01:16:04.739Z,100924.28
2022-07-29T01:21:42.352Z,100926.31
2022-07-29T01:26:53.186Z,100928.16
2022-07-29T01:32:09.959Z,100918.09
2022-07-29T01:37:45.295Z,100924.91
2022-07-29T01:42:52.437Z,100944.56
2022-07-29T01:47:53.844Z,100975.03
2022-07-29T01:52:59.339Z,100964.09
2022-07-29T01:58:01.973Z,100953.28
2022-07-29T02:03:08.341Z,100960.41
2022-07-29T02:08:11.863Z,100959.72
2022-07-29T02:13:15.070Z,100944.91
2022-07-29T02:18:19.535Z,100945.50
2022-07-29T02:23:23.777Z,100951.47
2022-07-29T02:28:28.873Z,100939.31
2022-07-29T02:33:32.489Z,100931.72
2022-07-29T02:38:52.024Z,100948.47
2022-07-29T02:44:02.619Z,100943.84
2022-07-29T02:49:17.691Z,100965.28
2022-07-29T02:54:47.186Z,100982.38
2022-07-29T02:59:52.486Z,100994.19
2022-07-29T03:04:56.362Z,101003.28
2022-07-29T03:10:00.789Z,100986.59
2022-07-29T03:15:03.035Z,100975.28
2022-07-29T03:20:05.261Z,100980.88
2022-07-29T03:25:14.339Z,100961.91
2022-07-29T03:30:21.591Z,100960.47
2022-07-29T03:35:24.046Z,100951.94
2022-07-29T03:40:32.370Z,100960.06
2022-07-29T03:45:35.547Z,100945.94
2022-07-29T03:50:37.379Z,100933.88
2022-07-29T03:55:43.765Z,100931.81
2022-07-29T04:00:45.968Z,100939.44
2022-07-29T04:06:00.406Z,100950.81
2022-07-29T04:11:03.791Z,100955.22
2022-07-29T04:16:05.634Z,100978.97
2022-07-29T04:21:07.274Z,100974.09
2022-07-29T04:26:12.255Z,100964.81
2022-07-29T04:31:14.394Z,100971.47
2022-07-29T04:36:28.674Z,100970.88
2022-07-29T04:41:32.968Z,100963.38
2022-07-29T04:46:36.500Z,100963.16
2022-07-29T04:51:38.742Z,100948.53
2022-07-29T04:56:40.343Z,100941.13
2022-07-29T05:01:41.858Z,100938.66
2022-07-29T05:06:44.915Z,100942.22
2022-07-29T05:11:46.769Z,100953.06
2022-07-29T05:16:49.369Z,100949.84
2022-07-29T05:21:51.357Z,100932.56
2022-07-29T05:26:53.203Z,100943.09
2022-07-29T05:31:54.771Z,100955.56
2022-07-29T05:36:56.379Z,100956.31
2022-07-29T05:41:57.879Z,100952.56
2022-07-29T05:46:59.339Z,100964.41
2022-07-29T05:52:00.855Z,100977.28
2022-07-29T05:57:02.911Z,100984.78
2022-07-29T06:02:05.955Z,100988.09
2022-07-29T06:07:07.636Z,101017.41
2022-07-29T06:12:09.422Z,101037.63
2022-07-29T06:17:12.496Z,101055.13
2022-07-29T06:22:16.968Z,101071.72
2022-07-29T06:27:18.489Z,101058.53
2022-07-29T06:32:20.211Z,101050.13
2022-07-29T06:37:25.228Z,101036.06
2022-07-29T06:42:28.118Z,101050.44
2022-07-29T06:47:29.967Z,101058.53
2022-07-29T06:52:31.561Z,101047.00
2022-07-29T06:57:33.411Z,101044.66
2022-07-29T07:02:35.010Z,101051.22
2022-07-29T07:07:36.562Z,101050.03
2022-07-29T07:12:38.112Z,101039.16
2022-07-29T07:17:39.830Z,101025.53
2022-07-29T07:22:41.316Z,101014.28
2022-07-29T07:27:43.298Z,101016.34
2022-07-29T07:32:44.961Z,101037.56
2022-07-29T07:37:46.593Z,101028.19
2022-07-29T07:42:49.635Z,101014.78
2022-07-29T07:47:51.259Z,101006.59
2022-07-29T07:52:55.389Z,101016.09
2022-07-29T07:57:57.173Z,101017.34
2022-07-29T08:02:58.871Z,101021.97
2022-07-29T08:08:00.748Z,101027.91
2022-07-29T08:13:08.914Z,101037.97
2022-07-29T08:18:10.715Z,101043.34
2022-07-29T08:23:12.247Z,101043.44
2022-07-29T08:28:13.759Z,101053.72
2022-07-29T08:33:15.424Z,101056.31
2022-07-29T08:38:17.488Z,101065.19
2022-07-29T08:43:19.232Z,101063.19
2022-07-29T08:48:23.036Z,101058.59
2022-07-29T08:53:27.921Z,101053.25
2022-07-29T08:58:36.590Z,101041.03
2022-07-29T09:03:40.818Z,101046.72
2022-07-29T09:08:42.679Z,101046.34
2022-07-29T09:13:45.399Z,101054.34
2022-07-29T09:18:47.665Z,101066.91
2022-07-29T09:24:09.110Z,101065.03
2022-07-29T09:29:16.029Z,101063.66
2022-07-29T09:34:32.780Z,101071.41
2022-07-29T09:39:46.415Z,101074.91
2022-07-29T09:44:50.852Z,101072.56
2022-07-29T09:50:00.321Z,101080.00
2022-07-29T09:55:10.226Z,101078.94
2022-07-29T10:00:20.910Z,101076.41
2022-07-29T10:05:24.547Z,101087.00
2022-07-29T10:10:31.768Z,101087.97
2022-07-29T10:15:44.681Z,101094.56
2022-07-29T10:20:46.513Z,101096.31
2022-07-29T10:25:48.429Z,101097.47
2022-07-29T10:31:14.619Z,101082.56
2022-07-29T10:36:45.153Z,101089.19
2022-07-29T10:42:03.539Z,101088.66
2022-07-29T10:47:05.765Z,101088.66
2022-07-29T10:52:10.279Z,101094.31
2022-07-29T10:57:12.643Z,101102.13
2022-07-29T11:02:42.326Z,101099.09
2022-07-29T11:08:20.418Z,101101.03
2022-07-29T11:13:44.588Z,101089.09
2022-07-29T11:19:26.767Z,101090.63
2022-07-29T11:24:33.385Z,101088.66
2022-07-29T11:29:41.501Z,101098.50
2022-07-29T11:34:45.187Z,101092.94
2022-07-29T11:39:53.686Z,101101.56
2022-07-29T11:50:33.486Z,101107.16
2022-07-29T11:55:50.908Z,101095.16
2022-07-29T12:00:55.815Z,101097.34
2022-07-29T12:05:57.701Z,101098.19
2022-07-29T12:07:01.822Z,101101.50
2022-07-29T12:10:59.431Z,101094.53
2022-07-29T12:16:01.442Z,101088.16
2022-07-29T12:21:08.500Z,101090.28
2022-07-29T12:26:11.056Z,101092.44
2022-07-29T12:31:43.467Z,101087.22
2022-07-29T12:36:45.246Z,101088.09
2022-07-29T12:41:46.837Z,101092.09
2022-07-29T12:47:02.778Z,101081.78
2022-07-29T12:52:25.282Z,101081.47
2022-07-29T12:57:27.908Z,101085.41
2022-07-29T13:02:29.610Z,101078.50
2022-07-29T13:07:54.299Z,101086.78
2022-07-29T13:13:10.457Z,101082.81
2022-07-29T13:18:31.589Z,101088.44
2022-07-29T13:23:33.056Z,101082.13
2022-07-29T13:28:39.908Z,101082.41
2022-07-29T13:33:41.460Z,101088.78
2022-07-29T13:38:42.960Z,101076.69
2022-07-29T13:43:44.699Z,101073.94
2022-07-29T13:48:46.329Z,101077.31
2022-07-29T13:53:47.902Z,101076.06
2022-07-29T13:58:49.352Z,101068.63
2022-07-29T14:03:50.955Z,101066.38
2022-07-29T14:08:52.416Z,101061.69
2022-07-29T14:13:53.965Z,101057.69
2022-07-29T14:18:55.446Z,101052.50
2022-07-29T14:23:57.239Z,101061.91
2022-07-29T14:28:59.717Z,101053.44
2022-07-29T14:34:02.947Z,101057.59
2022-07-29T14:39:05.028Z,101048.66
2022-07-29T14:44:06.526Z,101051.72
2022-07-29T14:49:08.072Z,101052.59
2022-07-29T14:54:11.277Z,101053.50
2022-07-29T14:59:12.877Z,101054.66
2022-07-29T15:04:14.365Z,101046.75
2022-07-29T15:09:16.087Z,101045.72
2022-07-29T15:14:17.679Z,101049.09
2022-07-29T15:19:19.171Z,101048.31
2022-07-29T15:24:20.826Z,101047.31
2022-07-29T15:29:22.546Z,101044.59
2022-07-29T15:34:24.242Z,101050.38
2022-07-29T15:39:25.807Z,101040.34
2022-07-29T15:44:27.415Z,101047.19
2022-07-29T15:49:49.505Z,101049.84
2022-07-29T15:54:51.091Z,101045.63
2022-07-29T15:59:52.944Z,101041.25
2022-07-29T16:04:54.420Z,101049.63
2022-07-29T16:09:55.912Z,101039.66
2022-07-29T16:14:57.432Z,101044.94
2022-07-29T16:19:58.964Z,101032.63
2022-07-29T16:25:00.506Z,101040.47
2022-07-29T16:30:02.150Z,101041.19
2022-07-29T16:35:05.193Z,101032.63
2022-07-29T16:40:11.752Z,101044.00
2022-07-29T16:45:13.677Z,101035.19
2022-07-29T16:50:15.420Z,101027.06
2022-07-29T16:55:17.133Z,101031.31
2022-07-29T17:00:21.021Z,101036.19
2022-07-29T17:05:22.727Z,101038.13
2022-07-29T17:10:25.529Z,101034.94
2022-07-29T17:15:29.265Z,101028.00
2022-07-29T17:20:32.992Z,101032.97
2022-07-29T17:25:34.472Z,101041.91
2022-07-29T17:30:36.028Z,101040.16
2022-07-29T17:35:56.201Z,101045.63
2022-07-29T17:40:57.965Z,101053.28
2022-07-29T17:45:59.701Z,101055.53
2022-07-29T17:51:01.635Z,101062.34
2022-07-29T17:56:04.514Z,101062.47
2022-07-29T18:01:06.976Z,101071.59
2022-07-29T18:06:10.431Z,101072.81
2022-07-29T18:11:14.924Z,101072.94
2022-07-29T18:16:16.993Z,101073.31
2022-07-29T18:21:43.597Z,101077.75
2022-07-29T18:26:39.966Z,101080.97
2022-07-29T18:31:41.606Z,101081.47
2022-07-29T18:36:43.345Z,101086.16
2022-07-29T18:41:49.860Z,101095.31
2022-07-29T18:46:52.563Z,101087.97
2022-07-29T18:51:54.268Z,101092.03
2022-07-29T18:56:55.986Z,101097.53
2022-07-29T19:01:57.855Z,101096.00
2022-07-29T19:07:02.701Z,101093.00
2022-07-29T19:12:04.650Z,101082.09
2022-07-29T19:17:06.243Z,101088.53
2022-07-29T19:22:07.913Z,101094.06
2022-07-29T19:27:09.394Z,101096.00
2022-07-29T19:32:11.133Z,101108.50
2022-07-29T19:37:12.664Z,101111.72
2022-07-29T19:42:14.114Z,101125.25
2022-07-29T19:47:17.462Z,101128.53
2022-07-29T19:52:19.062Z,101128.38
2022-07-29T19:57:20.611Z,101140.59
2022-07-29T20:02:22.365Z,101148.09
2022-07-29T20:07:23.934Z,101149.19
2022-07-29T20:12:25.519Z,101142.28
2022-07-29T20:17:28.353Z,101159.41
2022-07-29T20:22:30.345Z,101149.88
2022-07-29T20:27:31.846Z,101159.31
2022-07-29T20:32:33.408Z,101160.28
2022-07-29T20:37:34.986Z,101171.78
2022-07-29T20:42:56.687Z,101172.44
2022-07-29T20:47:58.371Z,101178.31
2022-07-29T20:52:59.840Z,101177.41
2022-07-29T20:58:01.773Z,101181.06
2022-07-29T21:03:03.608Z,101183.88
2022-07-29T21:08:06.391Z,101187.78
2022-07-29T21:13:07.861Z,101191.44
2022-07-29T21:18:26.635Z,101197.72
2022-07-29T21:23:28.694Z,101196.63
2022-07-29T21:28:35.656Z,101201.81
2022-07-29T21:33:37.635Z,101211.50
2022-07-29T21:38:39.263Z,101206.19
2022-07-29T21:43:42.224Z,101209.03
2022-07-29T21:48:44.701Z,101213.28
2022-07-29T21:53:46.259Z,101210.59
2022-07-29T21:58:47.730Z,101203.28
2022-07-29T22:03:49.235Z,101212.06
2022-07-29T22:08:51.677Z,101209.03
2022-07-29T22:13:53.154Z,101205.44
2022-07-29T22:18:54.606Z,101211.91
2022-07-29T22:23:56.069Z,101199.38
2022-07-29T22:28:57.670Z,101202.00
2022-07-29T22:33:59.231Z,101194.25
2022-07-29T22:39:00.676Z,101196.66
2022-07-29T22:44:02.586Z,101196.34
2022-07-29T22:49:05.247Z,101188.00
2022-07-29T22:54:07.363Z,101187.84
2022-07-29T22:59:08.823Z,101185.72
2022-07-29T23:04:10.411Z,101175.84
2022-07-29T23:09:16.272Z,101178.09
2022-07-29T23:14:17.715Z,101170.84
2022-07-29T23:19:19.181Z,101168.91
2022-07-29T23:24:20.683Z,101166.47
2022-07-29T23:29:22.227Z,101165.63
2022-07-29T23:34:23.703Z,101167.75
2022-07-29T23:39:25.143Z,101165.22
2022-07-29T23:44:26.673Z,101162.88
2022-07-29T23:49:28.234Z,101163.78
2022-07-29T23:54:29.756Z,101165.81
2022-07-29T23:59:31.194Z,101159.75
